Weather at Campo di Volo "Oasi da Peppe"

Public forecast

Using degrees Celsius for public forecast. Weather courtesy of forecast.io.

Closest aviation weather report (METAR) to Campo di Volo "Oasi da Peppe"

Closest report is Salerno Costa d'Amalfi Airport, 10.9 nm (20.2 km) NNW.

2024/04/22 06:54 (retrieved 35 minutes ago)

LIRI 220654Z 12004KT 080V160 CAVOK 15/09 Q1012

Closest aviation forecast (TAF) to Campo di Volo "Oasi da Peppe"

Closest forecast is Naples International Airport, 41.5 nm (76.9 km) NW.

2024/04/22 06:00 (retrieved 1 hour ago)

TAF LIRN 220500Z 2206/2306 VRB05KT CAVOK BECMG 2210/2212 21012KT BECMG 2216/2218 VRB05KT